Flight Track Log - Related Links

Times and Time Zones

All times are in EDT time to prevent confusion due to time zone crossing. See the DAL2352 flight status page for this flight to view local times or setup timezone preferences in your user account.

Time Position Orientation Groundspeed Altitude Reporting Facility
EDT Latitude Longitude Course Direction KTS MPH feet Rate Location/Type
Sun 06:30:41 AM 42.7236 -73.8081 180° South 162 186 1,100  Level Boston Center
Sun 06:31:48 AM 42.6669 -73.8378 201° Southwest 228 262 3,600 2,373 Climbing Boston Center
Sun 06:32:55 AM 42.6994 -73.9092 302° West 210 242 6,400 2,409 Climbing Boston Center
Sun 06:33:00 AM 42.5242 -74.1165 200° South  Level Estimated
Sun 06:33:55 AM 42.7169 -73.9886 287° West 210 242 8,700  Level Boston Center
Sun 06:34:00 AM 42.4490 -74.2208 198° South  Level Estimated
Sun 06:34:55 AM 42.7283 -74.0708 281° West 215 247 10,700  Level Boston Center
Sun 06:35:00 AM 42.3737 -74.3249 200° South  Level Estimated
Sun 06:35:55 AM 42.7397 -74.1503 281° West 220 253 12,600  Level Boston Center
Sun 06:36:00 AM 42.2984 -74.4288 180° South  Level Estimated
Sun 06:36:55 AM 42.7428 -74.2239 273° West 225 259 14,300  Level Boston Center
Sun 06:37:55 AM 42.6736 -74.2531 197° South 193 222 15,200 650 Climbing Boston Center
Sun 06:38:55 AM 42.5928 -74.2169 162° South 257 296 15,600 850 Climbing Boston Center
Sun 06:39:55 AM 42.4792 -74.1572 159° South 354 407 16,900 1,600 Climbing Boston Center
Sun 06:40:55 AM 42.3819 -74.1069 159° South 408 470 18,800 1,950 Climbing Boston Center
Sun 06:41:55 AM 42.2619 -74.0503 161° South 418 481 20,800 1,800 Climbing Boston Center
Sun 06:42:55 AM 42.1453 -74.0417 177° South 418 481 22,400 1,350 Climbing Boston Center
Sun 06:43:55 AM 42.0347 -74.0500 183° South 423 487 23,500 1,500 Climbing Boston Center
Sun 06:44:55 AM 41.9158 -74.0556 182° South 433 498 25,400 1,773 Climbing Boston Center
Sun 06:46:51 AM 41.7128 -74.1556 200° South 395 455 28,700 1,568 Climbing New York Center
Sun 06:47:51 AM 41.6169 -74.2283 210° Southwest 390 449 30,000 645 Climbing New York Center
Sun 06:48:52 AM 41.5317 -74.2989 212° Southwest 384 442 30,000  Level New York Center
Sun 06:49:53 AM 41.4358 -74.3711 209° Southwest 384 442 30,000  Level New York Center
Sun 06:50:51 AM 41.3419 -74.4436 210° Southwest 391 450 30,000  Level New York Center
Sun 06:51:53 AM 41.2547 -74.5050 208° Southwest 396 456 30,000  Level New York Center
Sun 06:52:53 AM 41.1606 -74.5769 210° Southwest 396 456 30,000  Level New York Center
Sun 06:53:54 AM 41.0647 -74.6458 208° Southwest 396 456 30,000  Level New York Center
Sun 06:54:52 AM 40.9706 -74.7203 211° Southwest 396 456 30,000  Level New York Center
Sun 06:55:53 AM 40.8767 -74.7861 208° Southwest 396 456 30,000  Level New York Center
Sun 06:56:53 AM 40.7803 -74.8597 210° Southwest 401 461 30,000  Level New York Center
Sun 06:57:53 AM 40.6861 -74.9308 210° Southwest 396 456 30,000  Level New York Center
Sun 06:58:51 AM 40.5922 -74.9989 209° Southwest 391 450 30,000  Level New York Center
Sun 06:59:51 AM 40.5136 -75.0922 222° Southwest 391 450 30,000  Level New York Center
Sun 07:00:52 AM 40.4472 -75.2028 232° Southwest 384 442 30,000  Level New York Center
Sun 07:01:53 AM 40.3714 -75.3286 232° Southwest 395 455 30,000  Level New York Center
Sun 07:02:51 AM 40.3047 -75.4386 232° Southwest 401 461 30,000  Level New York Center
Sun 07:03:53 AM 40.2375 -75.5508 232° Southwest 401 461 30,000 -50 Level New York Center
Sun 07:04:51 AM 40.1661 -75.6656 231° Southwest 406 467 29,900  Descending New York Center
Sun 07:05:53 AM 40.0992 -75.7722 231° Southwest 406 467 30,000 49 Climbing New York Center
Sun 07:06:53 AM 40.0300 -75.8811 230° Southwest 401 461 30,000  Level New York Center
Sun 07:07:53 AM 39.9603 -75.9953 231° Southwest 406 467 30,000  Level New York Center
Sun 07:09:59 AM 39.8203 -76.2156 230° Southwest 399 459 30,000  Level Washington Center
Sun 07:10:59 AM 39.7508 -76.3283 231° Southwest 399 459 30,000  Level Washington Center
Sun 07:12:00 AM 39.6814 -76.4381 231° Southwest 404 465 30,000  Level Washington Center
Sun 07:12:57 AM 39.5994 -76.5583 229° Southwest 404 465 30,000  Level Washington Center
Sun 07:13:58 AM 39.5317 -76.6650 231° Southwest 399 459 30,000  Level Washington Center
Sun 07:14:59 AM 39.4619 -76.7689 229° Southwest 399 459 30,000  Level Washington Center
Sun 07:16:00 AM 39.3942 -76.8806 232° Southwest 399 459 30,000  Level Washington Center
Sun 07:16:59 AM 39.3264 -76.9894 231° Southwest 399 459 30,000  Level Washington Center
Sun 07:17:57 AM 39.2564 -77.0953 230° Southwest 399 459 30,000  Level Washington Center
Sun 07:18:58 AM 39.1839 -77.2064 230° Southwest 399 459 30,000 492 Level Washington Center
Sun 07:19:59 AM 39.1158 -77.3092 230° Southwest 399 459 31,000 807 Climbing Washington Center
Sun 07:20:57 AM 39.0475 -77.4117 229° Southwest 394 453 31,600 454 Climbing Washington Center
Sun 07:21:58 AM 38.9794 -77.5114 229° Southwest 388 447 31,900 197 Climbing Washington Center
Sun 07:22:59 AM 38.9131 -77.6111 229° Southwest 383 441 32,000 49 Climbing Washington Center
Sun 07:24:00 AM 38.8511 -77.7000 228° Southwest 378 435 32,000 -50 Level Washington Center
Sun 07:24:58 AM 38.7783 -77.8097 230° Southwest 391 450 31,900 -50 Descending Washington Center
Sun 07:25:59 AM 38.7097 -77.9142 230° Southwest 396 456 31,900 50 Level Washington Center
Sun 07:26:58 AM 38.6431 -78.0158 230° Southwest 396 456 32,000 50 Climbing Washington Center
Sun 07:27:59 AM 38.5742 -78.1197 230° Southwest 396 456 32,000  Level Washington Center
Sun 07:29:00 AM 38.5053 -78.2208 229° Southwest 396 456 32,000  Level Washington Center
Sun 07:29:58 AM 38.4361 -78.3244 230° Southwest 396 456 32,000  Level Washington Center
Sun 07:30:58 AM 38.3669 -78.4306 230° Southwest 396 456 32,000  Level Washington Center
Sun 07:31:59 AM 38.2978 -78.5336 229° Southwest 396 456 32,000  Level Washington Center
Sun 07:32:59 AM 38.2242 -78.6472 231° Southwest 396 456 32,000  Level Washington Center
Sun 07:34:00 AM 38.1547 -78.7447 228° Southwest 384 442 32,000  Level Washington Center
Sun 07:35:00 AM 38.0853 -78.8472 229° Southwest 384 442 32,000  Level Washington Center
Sun 07:36:00 AM 38.0136 -78.9497 228° Southwest 384 442 32,000  Level Washington Center
Sun 07:36:57 AM 37.9528 -79.0392 229° Southwest 384 442 32,000  Level Washington Center
Sun 07:37:58 AM 37.8808 -79.1411 228° Southwest 384 442 32,000  Level Washington Center
Sun 07:38:59 AM 37.8069 -79.2400 227° Southwest 389 448 32,000  Level Washington Center
Sun 07:40:00 AM 37.7286 -79.3517 228° Southwest 389 448 32,000  Level Washington Center
Sun 07:40:58 AM 37.6522 -79.4528 226° Southwest 398 458 32,000  Level Washington Center
Sun 07:41:59 AM 37.5867 -79.5439 228° Southwest 398 458 32,000  Level Washington Center
Sun 07:43:00 AM 37.5058 -79.6550 227° Southwest 398 458 32,000  Level Washington Center
Sun 07:44:00 AM 37.4467 -79.7381 228° Southwest 398 458 32,000  Level Washington Center
Sun 07:44:57 AM 37.3567 -79.8614 227° Southwest 408 470 32,000  Level Washington Center
Sun 07:45:58 AM 37.2844 -79.9617 228° Southwest 398 458 32,000  Level Washington Center
Sun 07:48:21 AM 37.1133 -80.1869 226° Southwest 391 450 32,000  Level Atlanta Center
Sun 07:49:21 AM 37.0375 -80.2894 227° Southwest 391 450 32,000  Level Atlanta Center
Sun 07:50:21 AM 36.9653 -80.3864 227° Southwest 391 450 32,000  Level Atlanta Center
Sun 07:51:21 AM 36.8911 -80.4883 228° Southwest 385 443 32,000  Level Atlanta Center
Sun 07:52:21 AM 36.8108 -80.5931 226° Southwest 385 443 32,000  Level Atlanta Center
Sun 07:53:21 AM 36.7425 -80.6867 228° Southwest 380 437 32,000  Level Atlanta Center
Sun 07:54:21 AM 36.6700 -80.7828 227° Southwest 374 430 32,000  Level Atlanta Center
Sun 07:55:21 AM 36.5953 -80.8764 225° Southwest 379 436 32,000  Level Atlanta Center
Sun 07:56:21 AM 36.5228 -80.9775 228° Southwest 384 442 32,000  Level Atlanta Center
Sun 07:57:21 AM 36.4478 -81.0733 226° Southwest 384 442 32,000  Level Atlanta Center
Sun 07:58:21 AM 36.3711 -81.1742 227° Southwest 390 449 32,000  Level Atlanta Center
Sun 07:59:21 AM 36.2942 -81.2747 227° Southwest 396 456 32,000  Level Atlanta Center
Sun 08:00:21 AM 36.2192 -81.3803 229° Southwest 408 470 32,000  Level Atlanta Center
Sun 08:01:21 AM 36.1481 -81.4675 225° Southwest 408 470 32,000  Level Atlanta Center
Sun 08:02:21 AM 36.0750 -81.5647 227° Southwest 398 458 32,000  Level Atlanta Center
Sun 08:03:21 AM 35.9978 -81.6619 226° Southwest 396 456 32,000  Level Atlanta Center
Sun 08:04:21 AM 35.9225 -81.7617 227° Southwest 402 463 32,000  Level Atlanta Center
Sun 08:05:21 AM 35.8492 -81.8586 227° Southwest 402 463 32,000  Level Atlanta Center
Sun 08:06:21 AM 35.7694 -81.9581 225° Southwest 402 463 32,000  Level Atlanta Center
Sun 08:07:21 AM 35.6958 -82.0519 226° Southwest 402 463 32,000  Level Atlanta Center
Sun 08:08:21 AM 35.6181 -82.1508 226° Southwest 402 463 32,000  Level Atlanta Center
Sun 08:09:21 AM 35.5425 -82.2494 227° Southwest 402 463 32,000  Level Atlanta Center
Sun 08:10:21 AM 35.4647 -82.3483 226° Southwest 407 468 32,000  Level Atlanta Center
Sun 08:11:21 AM 35.3783 -82.4544 225° Southwest 407 468 32,000  Level Atlanta Center
Sun 08:12:21 AM 35.3003 -82.5500 225° Southwest 401 461 32,000  Level Atlanta Center
Sun 08:13:21 AM 35.2325 -82.6325 225° Southwest 401 461 32,000 -450 Level Atlanta Center
Sun 08:14:21 AM 35.1542 -82.7306 226° Southwest 401 461 31,100 -1,000 Descending Atlanta Center
Sun 08:15:21 AM 35.0758 -82.8281 226° Southwest 389 448 30,000 -1,050 Descending Atlanta Center
Sun 08:16:21 AM 35.0017 -82.9231 226° Southwest 384 442 29,000 -900 Descending Atlanta Center
Sun 08:17:21 AM 34.9439 -82.9947 225° Southwest 379 436 28,200 -1,000 Descending Atlanta Center
Sun 08:18:21 AM 34.8489 -83.1047 224° Southwest 384 442 27,000 -1,100 Descending Atlanta Center
Sun 08:19:21 AM 34.7806 -83.1942 227° Southwest 377 434 26,000 -1,000 Descending Atlanta Center
Sun 08:20:21 AM 34.7061 -83.2858 225° Southwest 372 428 25,000 -1,000 Descending Atlanta Center
Sun 08:21:21 AM 34.6314 -83.3547 217° Southwest 365 420 24,000 -650 Descending Atlanta Center
Sun 08:22:21 AM 34.5525 -83.4258 217° Southwest 354 407 23,700 -1,550 Descending Atlanta Center
Sun 08:23:21 AM 34.4756 -83.4994 218° Southwest 354 407 20,900 -3,000 Descending Atlanta Center
Sun 08:24:21 AM 34.3986 -83.5656 215° Southwest 368 423 17,700 -2,700 Descending Atlanta Center
Sun 08:25:21 AM 34.3175 -83.6414 218° Southwest 374 430 15,500 -2,250 Descending Atlanta Center
Sun 08:26:21 AM 34.2364 -83.7147 217° Southwest 374 430 13,200 -1,750 Descending Atlanta Center
Sun 08:27:21 AM 34.1614 -83.7803 216° Southwest 350 403 12,000 -600 Descending Atlanta Center
Sun 08:28:21 AM 34.0967 -83.8356 215° Southwest 306 352 12,000 -200 Level Atlanta Center
Sun 08:29:21 AM 34.0342 -83.9008 221° Southwest 282 325 11,600 -900 Descending Atlanta Center
Sun 08:30:21 AM 33.9778 -83.9611 222° Southwest 274 315 10,200 -1,250 Descending Atlanta Center
Sun 08:31:21 AM 33.9047 -83.9786 191° South 262 302 9,100 -650 Descending Atlanta Center
Sun 08:32:21 AM 33.8233 -83.9889 186° South 280 322 8,900 -850 Descending Atlanta Center
Sun 08:33:21 AM 33.7461 -83.9964 185° South 285 328 7,400 -950 Descending Atlanta Center
Sun 08:34:21 AM 33.6711 -84.0064 186° South 279 321 7,000 -400 Descending Atlanta Center
Sun 08:35:21 AM 33.6356 -84.0561 229° Southwest 216 249 6,600 -722 Descending Atlanta Center
Sun 08:36:34 AM 33.6333 -84.1333 268° West 193 222 5,400 -992 Descending Atlanta TRACON
Sun 08:37:34 AM 33.6333 -84.2000 270° West 195 224 4,400 -1,000 Descending Atlanta TRACON

Login

Don't have an account? Register now (free) for customized features, flight alerts, and more!